Time;durP1;ratioP1;P1;durP2;ratioP2;P2;SDS_P1;SDS_P2;PMS_P1;PMS_P2;Temp;Humidity;BMP_temperature;BMP_pressure;BME280_temperature;BME280_humidity;BME280_pressure;Samples;Min_cycle;Max_cycle;Signal;HPM_P1;HPM_P2
2023/06/06 00:01:26;;;;;;;9.27;4.25;;;;;;;20.16;60.29;99729.56;4423868;32;20501;-84
2023/06/06 00:03:51;;;;;;;8.10;4.80;;;;;;;20.20;60.29;99728.38;4407059;32;20194;-85
2023/06/06 00:06:20;;;;;;;7.12;4.72;;;;;;;20.21;60.29;99727.44;4399683;32;20157;-85
2023/06/06 00:08:47;;;;;;;5.95;4.53;;;;;;;20.33;60.30;99723.88;4410018;32;20833;-85
2023/06/06 00:11:13;;;;;;;12.77;5.30;;;;;;;20.16;60.29;99729.56;4427700;32;20112;-85
2023/06/06 00:13:40;;;;;;;11.57;5.55;;;;;;;20.13;60.28;99735.06;4396898;32;20540;-85
2023/06/06 00:16:06;;;;;;;7.62;4.62;;;;;;;20.04;60.28;99738.34;4423641;32;20579;-85
2023/06/06 00:18:31;;;;;;;8.52;4.47;;;;;;;19.99;60.28;99737.84;4409482;32;20085;-85
2023/06/06 00:20:57;;;;;;;10.60;4.95;;;;;;;20.06;60.28;99736.44;4409536;32;20414;-85
2023/06/06 00:23:22;;;;;;;5.35;4.10;;;;;;;20.15;60.28;99743.72;4409386;32;20471;-85
2023/06/06 00:25:51;;;;;;;7.12;4.10;;;;;;;20.06;60.27;99739.09;4393346;32;20128;-85
2023/06/06 00:28:16;;;;;;;6.95;4.25;;;;;;;20.21;60.29;99732.72;4421668;32;20160;-85
2023/06/06 00:30:42;;;;;;;7.65;3.85;;;;;;;20.39;60.29;99726.09;4423593;32;20109;-84
2023/06/06 00:33:07;;;;;;;8.98;4.18;;;;;;;20.40;60.30;99722.53;4393703;32;28905;-85
2023/06/06 00:35:33;;;;;;;8.93;4.40;;;;;;;20.18;60.29;99719.72;4408101;32;20098;-85
2023/06/06 00:37:58;;;;;;;6.15;4.40;;;;;;;20.06;60.27;99723.22;4419871;32;20109;-85
2023/06/06 00:40:23;;;;;;;9.70;4.72;;;;;;;20.14;60.28;99713.81;4423092;32;20120;-84
2023/06/06 00:42:49;;;;;;;8.55;4.18;;;;;;;20.03;60.28;99710.25;4405856;32;28638;-85
2023/06/06 00:45:14;;;;;;;5.62;4.35;;;;;;;20.12;60.28;99717.53;4398568;32;20110;-85
2023/06/06 00:47:40;;;;;;;8.35;4.62;;;;;;;20.06;60.28;99705.56;4407407;32;20422;-84
2023/06/06 00:50:06;;;;;;;8.65;4.18;;;;;;;20.13;60.28;99709.50;4396566;32;20161;-84
2023/06/06 00:52:31;;;;;;;5.78;3.85;;;;;;;20.17;60.29;99705.66;4406482;32;20094;-84
2023/06/06 00:54:57;;;;;;;7.72;4.87;;;;;;;20.18;60.29;99707.34;4398981;32;33698;-84
2023/06/06 00:57:23;;;;;;;9.20;4.60;;;;;;;20.10;60.29;99703.56;4407037;32;20093;-84
2023/06/06 00:59:48;;;;;;;7.18;4.80;;;;;;;20.14;60.28;99694.47;4396449;32;20098;-83
2023/06/06 01:02:17;;;;;;;6.62;4.68;;;;;;;20.19;60.28;99693.19;4393598;32;20102;-84
2023/06/06 01:04:43;;;;;;;9.35;5.32;;;;;;;20.03;60.28;99707.59;4402326;32;20113;-83
2023/06/06 01:07:18;;;;;;;8.40;5.30;;;;;;;20.13;60.28;99696.28;4422066;32;20215;-84
2023/06/06 01:09:44;;;;;;;10.40;5.93;;;;;;;20.26;60.29;99705.94;4398543;32;20089;-84
2023/06/06 01:12:25;;;;;;;8.93;4.68;;;;;;;20.23;60.29;99702.56;4406334;32;20102;-84
2023/06/06 01:15:01;;;;;;;7.72;4.75;;;;;;;20.47;60.30;99697.31;4418332;32;20168;-84
2023/06/06 01:17:27;;;;;;;8.00;4.22;;;;;;;20.33;60.29;99694.81;4422551;32;20097;-85
2023/06/06 01:19:54;;;;;;;8.65;4.12;;;;;;;20.26;60.29;99695.38;4395103;32;20453;-84
2023/06/06 01:22:22;;;;;;;8.80;4.00;;;;;;;20.14;60.28;99697.13;4406331;32;20496;-84
2023/06/06 01:24:55;;;;;;;7.28;4.40;;;;;;;20.23;60.29;99696.44;4405430;32;20128;-85
2023/06/06 01:27:21;;;;;;;5.75;3.60;;;;;;;20.11;60.28;99699.97;4408866;32;20159;-84
2023/06/06 01:29:47;;;;;;;9.25;4.68;;;;;;;20.10;60.28;99699.13;4422507;32;20137;-84
2023/06/06 01:32:38;;;;;;;8.40;3.55;;;;;;;20.11;60.28;99698.19;4393582;32;20110;-84
2023/06/06 01:35:08;;;;;;;9.80;3.70;;;;;;;20.18;60.29;99688.00;4421007;32;20156;-85
2023/06/06 01:37:59;;;;;;;6.28;4.25;;;;;;;20.11;60.28;99681.47;4408204;32;20112;-85
2023/06/06 01:40:26;;;;;;;6.90;3.83;;;;;;;20.27;60.29;99683.84;4402996;32;20115;-85
2023/06/06 01:42:51;;;;;;;6.32;4.07;;;;;;;20.27;60.29;99689.97;4408507;32;20131;-85
2023/06/06 01:45:18;;;;;;;5.87;3.92;;;;;;;20.16;60.29;99687.28;4407748;32;20447;-85
2023/06/06 01:47:44;;;;;;;5.70;4.05;;;;;;;20.10;60.28;99683.25;4393019;32;20087;-84
2023/06/06 01:50:09;;;;;;;6.03;4.18;;;;;;;20.11;60.28;99690.25;4376044;32;20090;-84
2023/06/06 01:52:38;;;;;;;7.25;4.47;;;;;;;20.02;60.28;99690.06;4393570;32;20451;-82
2023/06/06 01:55:05;;;;;;;7.45;4.70;;;;;;;20.05;60.28;99692.47;4401356;32;20086;-85
2023/06/06 01:57:31;;;;;;;5.22;4.25;;;;;;;20.14;60.28;99686.56;4423157;32;20077;-84
2023/06/06 01:59:56;;;;;;;6.07;4.12;;;;;;;20.05;60.28;99687.19;4401315;32;27400;-85
2023/06/06 02:02:21;;;;;;;6.35;4.28;;;;;;;19.95;60.27;99686.19;4418915;32;20134;-84
2023/06/06 02:04:48;;;;;;;6.82;4.55;;;;;;;20.02;60.28;99680.34;4401370;32;20124;-84
2023/06/06 02:07:15;;;;;;;6.53;4.07;;;;;;;19.88;60.27;99683.97;4422746;32;20090;-85
2023/06/06 02:09:41;;;;;;;8.10;4.07;;;;;;;19.95;60.27;99680.91;4395766;32;20076;-83
2023/06/06 02:12:07;;;;;;;11.38;4.93;;;;;;;20.10;60.28;99687.69;4409155;32;20101;-85
2023/06/06 02:14:32;;;;;;;6.85;4.22;;;;;;;20.20;60.28;99686.94;4395539;32;20163;-85
2023/06/06 02:16:58;;;;;;;6.80;4.32;;;;;;;20.14;60.28;99695.31;4408527;32;31912;-85
2023/06/06 02:19:23;;;;;;;7.65;4.65;;;;;;;20.10;60.28;99692.97;4400035;32;34476;-84
2023/06/06 02:21:50;;;;;;;8.30;5.15;;;;;;;20.14;60.27;99703.25;4391188;32;20167;-85
2023/06/06 02:24:15;;;;;;;6.78;4.32;;;;;;;20.14;60.27;99700.59;4402765;32;20524;-85
2023/06/06 02:26:42;;;;;;;6.07;4.72;;;;;;;20.14;60.27;99697.13;4424137;32;20090;-84
2023/06/06 02:29:07;;;;;;;8.20;4.70;;;;;;;20.10;60.28;99700.91;4411024;32;20116;-84
2023/06/06 02:31:33;;;;;;;9.40;4.65;;;;;;;20.10;60.28;99700.91;4410628;32;20141;-84
2023/06/06 02:33:58;;;;;;;9.68;4.40;;;;;;;20.15;60.28;99706.72;4408200;32;20141;-84
2023/06/06 02:36:25;;;;;;;6.18;4.30;;;;;;;20.20;60.28;99716.00;4396496;32;20271;-85
2023/06/06 02:38:51;;;;;;;6.70;4.75;;;;;;;20.27;60.29;99724.34;4417014;32;20465;-84
2023/06/06 02:41:16;;;;;;;6.50;4.20;;;;;;;20.38;60.28;99723.56;4395034;32;20155;-85
2023/06/06 02:43:42;;;;;;;7.43;3.80;;;;;;;20.35;60.29;99731.72;4396282;32;20118;-85
2023/06/06 02:46:07;;;;;;;8.40;4.47;;;;;;;20.33;60.29;99731.81;4419193;32;20486;-84
2023/06/06 02:48:33;;;;;;;9.88;4.78;;;;;;;20.18;60.28;99722.38;4408400;32;20086;-84
2023/06/06 02:50:59;;;;;;;8.25;4.70;;;;;;;19.99;60.27;99730.75;4423259;32;20125;-84
2023/06/06 02:53:24;;;;;;;9.48;5.15;;;;;;;20.10;60.28;99732.63;4410537;32;20113;-85
2023/06/06 02:55:50;;;;;;;8.80;5.03;;;;;;;20.00;60.26;99724.53;4407018;32;23655;-84
2023/06/06 02:58:28;;;;;;;10.63;5.28;;;;;;;19.90;60.26;99723.50;4395160;32;20113;-85
2023/06/06 03:00:57;;;;;;;8.63;4.62;;;;;;;20.11;60.28;99721.97;4422981;32;20098;-84
2023/06/06 03:03:23;;;;;;;11.55;5.72;;;;;;;19.97;60.27;99722.09;4408017;32;20102;-84
2023/06/06 03:05:51;;;;;;;9.80;4.22;;;;;;;19.90;60.26;99718.22;4410177;32;20085;-85
2023/06/06 03:08:17;;;;;;;8.20;5.00;;;;;;;20.13;60.27;99722.69;4407652;32;20094;-86
2023/06/06 03:10:46;;;;;;;10.52;5.22;;;;;;;20.07;60.27;99727.56;4424063;32;20106;-85
2023/06/06 03:13:12;;;;;;;6.72;4.87;;;;;;;20.06;60.27;99731.16;4408078;32;20097;-85
2023/06/06 03:15:40;;;;;;;7.37;4.55;;;;;;;19.96;60.27;99724.84;4397226;32;20410;-85
2023/06/06 03:18:06;;;;;;;8.13;4.90;;;;;;;20.00;60.26;99724.53;4423992;32;20082;-85
2023/06/06 03:20:32;;;;;;;8.73;4.65;;;;;;;20.23;60.29;99738.72;4407555;32;20525;-85
2023/06/06 03:22:57;;;;;;;10.73;5.00;;;;;;;20.28;60.28;99751.59;4419398;32;20105;-85
2023/06/06 03:25:26;;;;;;;10.07;5.25;;;;;;;20.36;60.29;99758.06;4394947;32;20120;-86
2023/06/06 03:27:51;;;;;;;7.75;5.15;;;;;;;20.37;60.29;99762.38;4404232;32;20093;-87
2023/06/06 03:30:17;;;;;;;10.65;5.45;;;;;;;20.16;60.28;99754.19;4423819;32;20119;-86
2023/06/06 03:32:42;;;;;;;10.45;5.35;;;;;;;20.10;60.28;99751.13;4424042;32;20426;-86
2023/06/06 03:35:08;;;;;;;7.20;4.80;;;;;;;20.34;60.29;99744.06;4424264;32;20476;-86
2023/06/06 03:37:33;;;;;;;9.60;5.25;;;;;;;20.34;60.29;99745.88;4410082;32;20147;-85
2023/06/06 03:39:58;;;;;;;10.68;5.75;;;;;;;20.15;60.27;99746.38;4410303;32;20393;-85
2023/06/06 03:42:24;;;;;;;8.05;4.93;;;;;;;20.00;60.26;99744.81;4395157;32;20138;-85
2023/06/06 03:44:49;;;;;;;8.20;4.93;;;;;;;20.14;60.27;99736.75;4394356;32;28006;-85
2023/06/06 03:47:15;;;;;;;8.77;5.30;;;;;;;20.02;60.27;99737.62;4404472;32;32927;-86
2023/06/06 03:49:40;;;;;;;13.60;5.72;;;;;;;20.07;60.27;99736.34;4394827;32;20149;-87
2023/06/06 03:52:06;;;;;;;11.15;5.20;;;;;;;20.33;60.29;99726.53;4409235;32;20478;-85
2023/06/06 03:54:36;;;;;;;9.18;5.70;;;;;;;20.41;60.29;99716.28;4423804;32;20089;-86
2023/06/06 03:57:02;;;;;;;7.85;6.12;;;;;;;20.37;60.29;99714.81;4408451;32;20712;-86
2023/06/06 03:59:27;;;;;;;10.18;5.37;;;;;;;20.16;60.28;99706.63;4394274;32;20466;-86
2023/06/06 04:01:53;;;;;;;10.60;5.78;;;;;;;20.29;60.28;99697.78;4417923;32;20124;-87
2023/06/06 04:04:18;;;;;;;8.50;5.47;;;;;;;20.14;60.27;99697.13;4424152;32;20120;-87
2023/06/06 04:06:44;;;;;;;12.00;6.05;;;;;;;20.02;60.27;99693.53;4423454;32;20362;-87
2023/06/06 04:09:10;;;;;;;9.15;6.05;;;;;;;19.80;60.26;99706.59;4394190;32;23645;-86
2023/06/06 04:11:36;;;;;;;9.73;5.70;;;;;;;19.93;60.25;99708.28;4418847;32;20120;-87
2023/06/06 04:14:01;;;;;;;9.00;5.53;;;;;;;19.80;60.26;99710.06;4409687;32;20490;-87
2023/06/06 04:16:27;;;;;;;16.00;6.07;;;;;;;19.86;60.26;99714.91;4423125;32;20378;-87
2023/06/06 04:18:52;;;;;;;8.77;5.85;;;;;;;19.78;60.26;99714.62;4423021;32;23841;-87
2023/06/06 04:21:18;;;;;;;8.68;5.82;;;;;;;19.81;60.26;99711.75;4394818;32;20487;-85
2023/06/06 04:23:45;;;;;;;11.10;6.60;;;;;;;19.88;60.26;99715.69;4398202;32;20160;-85
2023/06/06 04:26:33;;;;;;;11.80;5.87;;;;;;;19.93;60.26;99718.00;4404189;32;20082;-86
2023/06/06 04:28:59;;;;;;;10.95;6.18;;;;;;;19.98;60.27;99709.72;4389621;32;20156;-86
2023/06/06 04:31:26;;;;;;;13.23;6.32;;;;;;;20.03;60.27;99723.44;4397118;32;20352;-86
2023/06/06 04:33:55;;;;;;;10.93;6.12;;;;;;;19.93;60.26;99718.00;4423435;32;20093;-86
2023/06/06 04:36:21;;;;;;;9.02;5.68;;;;;;;20.16;60.28;99711.91;4396519;32;20451;-86
2023/06/06 04:38:48;;;;;;;9.93;6.18;;;;;;;20.18;60.28;99709.16;4422774;32;20159;-86
2023/06/06 04:41:17;;;;;;;6.60;5.03;;;;;;;20.21;60.28;99706.28;4406695;32;20470;-86
2023/06/06 04:43:43;;;;;;;7.95;5.68;;;;;;;20.36;60.29;99709.63;4390002;32;20112;-86
2023/06/06 04:46:09;;;;;;;7.43;5.55;;;;;;;20.37;60.28;99712.16;4393887;32;20513;-86
2023/06/06 04:48:34;;;;;;;9.15;5.10;;;;;;;20.44;60.29;99702.84;4401523;32;33382;-86
2023/06/06 04:50:59;;;;;;;6.62;4.75;;;;;;;20.39;60.28;99709.41;4392867;32;22402;-86
2023/06/06 04:53:25;;;;;;;9.02;4.85;;;;;;;20.52;60.29;99708.41;4415256;32;30662;-86
2023/06/06 04:55:52;;;;;;;8.30;5.30;;;;;;;20.57;60.30;99699.28;4393684;32;20125;-86
2023/06/06 04:58:19;;;;;;;10.48;6.53;;;;;;;20.56;60.30;99703.72;4387066;32;20118;-86
2023/06/06 05:00:46;;;;;;;7.60;5.10;;;;;;;20.53;60.29;99707.44;4404736;32;20128;-86
2023/06/06 05:03:12;;;;;;;7.75;5.43;;;;;;;20.58;60.30;99708.91;4403022;32;20473;-86
2023/06/06 05:05:37;;;;;;;6.75;5.05;;;;;;;20.59;60.30;99711.47;4393809;32;20102;-86
2023/06/06 05:08:03;;;;;;;9.20;4.68;;;;;;;20.60;60.29;99709.66;4389427;32;24669;-86
2023/06/06 05:10:29;;;;;;;9.55;5.80;;;;;;;20.68;60.31;99710.75;4395720;32;20106;-86
2023/06/06 05:12:54;;;;;;;10.02;4.97;;;;;;;20.73;60.30;99713.91;4417593;32;20505;-86
2023/06/06 05:15:19;;;;;;;7.55;5.20;;;;;;;20.75;60.30;99724.38;4407180;32;31104;-86
2023/06/06 05:17:55;;;;;;;8.20;5.05;;;;;;;20.66;60.30;99722.41;4403603;32;20123;-86
2023/06/06 05:20:23;;;;;;;8.40;5.82;;;;;;;20.94;60.32;99727.31;4408409;32;20102;-85
2023/06/06 05:22:49;;;;;;;10.30;5.65;;;;;;;20.90;60.31;99728.53;4405456;32;20107;-86
2023/06/06 05:25:15;;;;;;;7.47;4.87;;;;;;;21.01;60.33;99717.97;4424557;32;20085;-86
2023/06/06 05:27:40;;;;;;;9.93;5.45;;;;;;;21.01;60.31;99719.75;4408216;32;20156;-87
2023/06/06 05:30:06;;;;;;;11.02;5.72;;;;;;;21.04;60.32;99722.19;4423798;32;20194;-86
2023/06/06 05:32:32;;;;;;;7.70;5.37;;;;;;;21.06;60.32;99722.94;4424841;32;20168;-86
2023/06/06 05:35:03;;;;;;;7.78;5.47;;;;;;;21.03;60.32;99721.34;4395297;32;20101;-86
2023/06/06 05:37:28;;;;;;;8.95;5.20;;;;;;;21.12;60.32;99723.31;4419300;32;20124;-86
2023/06/06 05:39:54;;;;;;;13.48;6.32;;;;;;;21.06;60.32;99723.78;4395461;32;20106;-86
2023/06/06 05:42:21;;;;;;;7.68;5.95;;;;;;;21.20;60.33;99727.16;4405982;32;20116;-86
2023/06/06 05:44:50;;;;;;;11.05;6.03;;;;;;;21.27;60.33;99728.41;4408867;32;20098;-86
2023/06/06 05:47:15;;;;;;;10.27;6.32;;;;;;;21.30;60.33;99729.03;4394736;32;20112;-87
2023/06/06 05:49:41;;;;;;;10.13;6.12;;;;;;;21.31;60.33;99733.38;4408490;32;20121;-86
2023/06/06 05:52:06;;;;;;;8.50;5.70;;;;;;;21.37;60.33;99729.41;4381032;32;20148;-87
2023/06/06 05:54:32;;;;;;;8.80;6.03;;;;;;;21.31;60.33;99720.13;4397454;32;20113;-86
2023/06/06 05:56:57;;;;;;;8.63;6.03;;;;;;;21.44;60.34;99720.00;4423852;32;20145;-86
2023/06/06 05:59:23;;;;;;;7.68;6.10;;;;;;;21.51;60.34;99725.66;4410331;32;20160;-86
2023/06/06 06:01:49;;;;;;;9.18;6.62;;;;;;;21.60;60.35;99725.81;4395444;32;20089;-87
2023/06/06 06:04:17;;;;;;;10.15;7.05;;;;;;;21.52;60.35;99732.66;4395798;32;20173;-86
2023/06/06 06:06:46;;;;;;;8.60;7.00;;;;;;;21.43;60.34;99732.41;4402916;32;20106;-86
2023/06/06 06:09:12;;;;;;;10.07;6.72;;;;;;;21.49;60.35;99732.88;4411062;32;20094;-86
2023/06/06 06:11:38;;;;;;;9.57;6.45;;;;;;;21.60;60.35;99731.09;4423898;32;20078;-86
2023/06/06 06:14:03;;;;;;;10.13;6.95;;;;;;;21.65;60.36;99739.53;4410402;32;20445;-87
2023/06/06 06:16:29;;;;;;;13.10;7.12;;;;;;;21.65;60.36;99736.03;4394847;32;20128;-86
2023/06/06 06:18:54;;;;;;;10.88;6.82;;;;;;;21.69;60.35;99735.69;4397633;32;20145;-86
2023/06/06 06:21:21;;;;;;;12.07;7.68;;;;;;;21.84;60.36;99738.94;4394832;32;20128;-85
2023/06/06 06:23:48;;;;;;;9.85;7.45;;;;;;;21.56;60.34;99739.41;4387234;32;20141;-86
2023/06/06 06:26:13;;;;;;;11.82;8.23;;;;;;;21.83;60.36;99742.56;4424384;32;20155;-86
2023/06/06 06:28:38;;;;;;;14.02;8.80;;;;;;;21.81;60.36;99735.69;4409845;32;20872;-86
2023/06/06 06:31:04;;;;;;;11.32;7.53;;;;;;;21.71;60.36;99749.66;4399384;32;34757;-86
2023/06/06 06:33:33;;;;;;;13.75;8.77;;;;;;;22.04;60.37;99740.91;4410568;32;20081;-85
2023/06/06 06:35:58;;;;;;;14.63;9.35;;;;;;;22.20;60.38;99742.31;4410619;32;20116;-87
2023/06/06 06:38:24;;;;;;;14.90;8.32;;;;;;;22.15;60.38;99747.97;4397765;32;20155;-85
2023/06/06 06:40:50;;;;;;;13.30;8.35;;;;;;;22.26;60.39;99755.94;4409755;32;20093;-86
2023/06/06 06:43:16;;;;;;;13.98;9.45;;;;;;;22.27;60.39;99754.97;4410496;32;20090;-85
2023/06/06 06:45:41;;;;;;;13.38;8.95;;;;;;;22.32;60.38;99760.75;4395098;32;20169;-85
2023/06/06 06:48:06;;;;;;;17.15;8.25;;;;;;;22.20;60.38;99764.34;4397491;32;20516;-86
2023/06/06 06:50:32;;;;;;;12.23;9.60;;;;;;;22.26;60.38;99765.69;4381712;32;33295;-86
2023/06/06 06:52:57;;;;;;;12.70;9.43;;;;;;;22.19;60.38;99770.63;4394394;32;32880;-86
2023/06/06 06:55:26;;;;;;;12.70;9.52;;;;;;;22.18;60.38;99768.94;4390125;32;20102;-86
2023/06/06 06:57:52;;;;;;;16.67;10.90;;;;;;;22.20;60.38;99769.66;4400562;32;20175;-86
2023/06/06 07:00:22;;;;;;;14.77;10.55;;;;;;;22.34;60.40;99773.88;4408337;32;20093;-86
2023/06/06 07:02:47;;;;;;;14.63;10.73;;;;;;;22.18;60.37;99776.06;4394214;32;20117;-87
2023/06/06 07:05:15;;;;;;;14.82;10.57;;;;;;;22.13;60.38;99771.13;4392400;32;22598;-86
2023/06/06 07:07:50;;;;;;;19.00;12.32;;;;;;;22.32;60.38;99766.03;4424211;32;20449;-86
2023/06/06 07:10:16;;;;;;;14.68;11.30;;;;;;;22.22;60.38;99767.72;4423954;32;20115;-87
2023/06/06 07:12:44;;;;;;;18.80;12.00;;;;;;;22.33;60.38;99774.84;4397622;32;20109;-86
2023/06/06 07:15:10;;;;;;;17.90;12.90;;;;;;;22.37;60.39;99773.63;4403120;32;20074;-86
2023/06/06 07:17:35;;;;;;;20.42;13.45;;;;;;;22.63;60.40;99768.84;4393374;32;20125;-87
2023/06/06 07:20:03;;;;;;;18.62;12.52;;;;;;;22.56;60.39;99775.62;4409130;32;20145;-87
2023/06/06 07:22:29;;;;;;;17.37;13.07;;;;;;;22.48;60.39;99780.72;4395249;32;20615;-85
2023/06/06 07:24:54;;;;;;;18.12;13.15;;;;;;;22.68;60.41;99777.28;4405366;32;20166;-87
2023/06/06 07:27:20;;;;;;;16.60;11.80;;;;;;;22.62;60.39;99767.16;4418070;32;20110;-88
2023/06/06 07:29:45;;;;;;;18.85;13.85;;;;;;;22.64;60.41;99771.38;4423614;32;20368;-87
2023/06/06 07:32:11;;;;;;;20.85;13.82;;;;;;;22.58;60.40;99771.03;4381975;32;20160;-86
2023/06/06 07:34:36;;;;;;;21.48;13.65;;;;;;;22.75;60.41;99764.37;4391065;32;20105;-86
2023/06/06 07:37:02;;;;;;;21.30;13.68;;;;;;;22.92;60.42;99761.19;4386873;32;20102;-87
2023/06/06 07:39:27;;;;;;;20.73;14.63;;;;;;;23.11;60.42;99765.81;4394373;32;20136;-86
2023/06/06 07:41:53;;;;;;;20.67;13.68;;;;;;;23.11;60.42;99757.84;4407402;32;20116;-88
2023/06/06 07:44:18;;;;;;;21.45;14.23;;;;;;;22.96;60.41;99765.28;4407069;32;20223;-87
2023/06/06 07:46:44;;;;;;;27.58;17.15;;;;;;;23.23;60.43;99759.47;4381953;32;20171;-85
2023/06/06 07:49:09;;;;;;;29.00;16.50;;;;;;;23.45;60.45;99761.16;4420876;32;20133;-86
2023/06/06 07:51:35;;;;;;;20.55;14.73;;;;;;;23.49;60.44;99760.75;4394573;32;20133;-86
2023/06/06 07:54:01;;;;;;;19.35;14.45;;;;;;;23.74;60.46;99756.87;4420996;32;20117;-87
2023/06/06 07:56:30;;;;;;;32.90;16.00;;;;;;;23.78;60.46;99749.47;4394290;32;20662;-87
2023/06/06 07:58:55;;;;;;;21.90;16.10;;;;;;;24.11;60.47;99756.28;4394831;32;20086;-88
2023/06/06 08:01:21;;;;;;;24.75;16.45;;;;;;;24.09;60.47;99748.44;4394491;32;20128;-86
2023/06/06 08:03:49;;;;;;;22.90;15.85;;;;;;;24.14;60.48;99756.06;4394205;32;20149;-86
2023/06/06 08:06:16;;;;;;;24.33;16.70;;;;;;;24.27;60.48;99742.50;4397801;32;20117;-88
2023/06/06 08:08:42;;;;;;;17.83;14.70;;;;;;;24.23;60.48;99746.41;4398979;32;20112;-87
2023/06/06 08:11:07;;;;;;;23.00;16.75;;;;;;;24.39;60.49;99742.28;4399400;32;20150;-87
2023/06/06 08:13:33;;;;;;;21.42;15.90;;;;;;;24.27;60.48;99747.81;4391724;32;20149;-87
2023/06/06 08:15:58;;;;;;;26.42;16.33;;;;;;;24.50;60.49;99741.31;4387096;32;20457;-87
2023/06/06 08:18:23;;;;;;;26.20;17.12;;;;;;;24.46;60.50;99737.25;4404286;32;20109;-88
2023/06/06 08:20:49;;;;;;;25.55;16.42;;;;;;;24.59;60.50;99737.81;4394359;32;20114;-88
2023/06/06 08:23:14;;;;;;;24.23;16.83;;;;;;;24.70;60.51;99737.69;4391774;32;20118;-87
2023/06/06 08:25:40;;;;;;;22.20;17.02;;;;;;;24.61;60.50;99741.19;4399196;32;20248;-87
2023/06/06 08:28:05;;;;;;;19.33;15.20;;;;;;;24.78;60.51;99735.16;4410671;32;20073;-88
2023/06/06 08:30:31;;;;;;;23.17;16.55;;;;;;;24.80;60.51;99729.69;4389865;32;30861;-88
2023/06/06 08:32:56;;;;;;;20.80;16.05;;;;;;;24.98;60.52;99732.50;4386373;32;25617;-87
2023/06/06 08:35:22;;;;;;;20.33;14.90;;;;;;;25.03;60.53;99736.44;4415080;32;20485;-88
2023/06/06 08:37:47;;;;;;;20.23;14.80;;;;;;;25.31;60.54;99728.53;4409209;32;20177;-86
2023/06/06 08:40:13;;;;;;;24.37;15.70;;;;;;;25.33;60.54;99735.44;4408336;32;20143;-86
2023/06/06 08:42:42;;;;;;;20.37;15.23;;;;;;;25.45;60.54;99737.94;4407301;32;20129;-87
2023/06/06 08:45:08;;;;;;;20.73;15.02;;;;;;;25.22;60.53;99732.09;4406842;32;20611;-86
2023/06/06 08:47:33;;;;;;;18.77;14.80;;;;;;;25.25;60.53;99729.13;4392911;32;20098;-86
2023/06/06 08:50:00;;;;;;;19.70;14.98;;;;;;;25.39;60.54;99736.69;4394924;32;31801;-86
2023/06/06 08:52:25;;;;;;;23.73;17.10;;;;;;;25.36;60.54;99728.97;4396168;32;20125;-85
2023/06/06 08:54:50;;;;;;;20.75;15.68;;;;;;;25.38;60.54;99730.50;4409059;32;20117;-85
2023/06/06 08:57:19;;;;;;;21.20;14.85;;;;;;;25.49;60.55;99726.81;4408152;32;20151;-84
2023/06/06 08:59:44;;;;;;;18.62;14.13;;;;;;;25.45;60.54;99725.44;4417661;32;20478;-84
2023/06/06 09:02:10;;;;;;;19.35;14.38;;;;;;;25.63;60.56;99722.88;4423413;32;25576;-85
2023/06/06 09:04:36;;;;;;;18.60;13.62;;;;;;;25.74;60.56;99721.88;4424957;32;20118;-85
2023/06/06 09:07:08;;;;;;;19.33;13.88;;;;;;;25.82;60.56;99722.81;4397437;32;20524;-85
2023/06/06 09:09:35;;;;;;;19.48;12.63;;;;;;;25.91;60.56;99729.09;4399185;32;20089;-85
2023/06/06 09:12:00;;;;;;;18.12;14.18;;;;;;;26.08;60.57;99728.31;4395718;32;20455;-86
2023/06/06 09:14:26;;;;;;;17.62;11.77;;;;;;;26.07;60.58;99723.97;4403890;32;20148;-86
2023/06/06 09:16:52;;;;;;;16.65;12.27;;;;;;;26.01;60.56;99721.88;4424208;32;20467;-86
2023/06/06 09:19:23;;;;;;;16.37;12.23;;;;;;;25.65;60.56;99727.06;4408228;32;20153;-85
2023/06/06 09:21:48;;;;;;;15.23;12.80;;;;;;;25.82;60.56;99722.00;4409787;32;20106;-84
2023/06/06 09:24:15;;;;;;;15.48;12.40;;;;;;;25.97;60.57;99715.16;4410348;32;20110;-85
2023/06/06 09:26:41;;;;;;;19.80;13.60;;;;;;;26.23;60.58;99715.28;4401959;32;20164;-86
2023/06/06 09:29:11;;;;;;;18.10;12.82;;;;;;;26.46;60.59;99715.72;4424177;32;20184;-84
2023/06/06 09:31:40;;;;;;;17.42;11.57;;;;;;;26.71;60.61;99704.28;4421927;32;20469;-85
2023/06/06 09:34:09;;;;;;;16.03;11.73;;;;;;;27.00;60.62;99709.44;4424490;32;20098;-85
2023/06/06 09:36:35;;;;;;;16.27;13.33;;;;;;;27.04;60.63;99710.81;4395504;32;20271;-86
2023/06/06 09:39:14;;;;;;;16.20;13.05;;;;;;;27.08;60.63;99706.81;4415569;32;20508;-85
2023/06/06 09:41:45;;;;;;;15.73;11.87;;;;;;;27.20;60.64;99710.91;4399391;32;20102;-85
2023/06/06 09:44:20;;;;;;;14.77;11.85;;;;;;;27.26;60.64;99711.28;4419165;32;20217;-86
2023/06/06 09:46:49;;;;;;;14.05;11.38;;;;;;;27.32;60.64;99713.31;4407810;32;20116;-86
2023/06/06 09:49:15;;;;;;;15.10;12.37;;;;;;;27.12;60.63;99702.84;4408174;32;20521;-86
2023/06/06 09:51:43;;;;;;;17.08;13.02;;;;;;;26.91;60.62;99700.47;4395310;32;20494;-86
2023/06/06 09:54:10;;;;;;;17.48;13.35;;;;;;;26.84;60.61;99707.44;4408411;32;20110;-84
2023/06/06 09:56:40;;;;;;;18.17;12.80;;;;;;;26.68;60.61;99701.94;4409806;32;20169;-85
2023/06/06 09:59:06;;;;;;;16.05;13.15;;;;;;;26.70;60.62;99705.28;4395597;32;20106;-86
2023/06/06 10:01:33;;;;;;;20.10;14.13;;;;;;;26.65;60.62;99704.06;4404244;32;20090;-86
2023/06/06 10:03:58;;;;;;;17.65;13.50;;;;;;;26.82;60.62;99697.91;4409760;32;20123;-85
2023/06/06 10:06:33;;;;;;;16.58;13.35;;;;;;;26.85;60.62;99697.59;4400564;32;20105;-86
2023/06/06 10:08:59;;;;;;;16.42;12.60;;;;;;;26.30;60.59;99695.87;4383092;32;20482;-87
2023/06/06 10:11:25;;;;;;;26.35;14.90;;;;;;;26.45;60.60;99698.88;4394475;32;20114;-86
2023/06/06 10:13:51;;;;;;;22.45;15.60;;;;;;;26.39;60.60;99698.66;4407513;32;20098;-86
2023/06/06 10:16:16;;;;;;;20.92;14.87;;;;;;;25.94;60.58;99702.97;4404743;32;20094;-85
2023/06/06 10:18:44;;;;;;;18.75;15.00;;;;;;;25.88;60.57;99700.91;4384987;32;20128;-85
2023/06/06 10:21:10;;;;;;;17.33;13.52;;;;;;;25.43;60.55;99700.75;4407958;32;20098;-84
2023/06/06 10:23:35;;;;;;;15.90;13.43;;;;;;;25.29;60.54;99712.72;4405345;32;20128;-87
2023/06/06 10:26:01;;;;;;;20.33;14.73;;;;;;;25.29;60.54;99703.87;4389435;32;20124;-86
2023/06/06 10:28:33;;;;;;;19.25;14.30;;;;;;;25.23;60.54;99709.78;4395942;32;33720;-87
2023/06/06 10:31:12;;;;;;;21.05;16.00;;;;;;;25.25;60.54;99703.31;4395503;32;20094;-87
2023/06/06 10:33:44;;;;;;;17.35;14.25;;;;;;;25.09;60.54;99713.75;4386510;32;20105;-86
2023/06/06 10:36:13;;;;;;;17.90;14.15;;;;;;;25.16;60.54;99709.53;4394584;32;20154;-88
2023/06/06 10:38:39;;;;;;;15.35;11.15;;;;;;;25.04;60.53;99702.66;4410443;32;20082;-84
2023/06/06 10:41:17;;;;;;;14.65;12.27;;;;;;;25.04;60.53;99705.31;4387531;32;20450;-86
2023/06/06 10:43:44;;;;;;;15.48;11.27;;;;;;;25.18;60.53;99707.56;4424335;32;20093;-88
2023/06/06 10:46:09;;;;;;;14.27;11.52;;;;;;;24.92;60.53;99703.78;4410006;32;20081;-86
2023/06/06 10:48:48;;;;;;;14.60;11.40;;;;;;;24.84;60.53;99704.47;4410388;32;20120;-86
2023/06/06 10:51:23;;;;;;;14.65;12.15;;;;;;;24.95;60.53;99696.34;4385716;32;20114;-84
2023/06/06 10:54:27;;;;;;;14.30;11.50;;;;;;;25.17;60.54;99697.88;4420726;32;20209;-86
2023/06/06 10:56:55;;;;;;;14.98;11.98;;;;;;;25.31;60.55;99694.75;4410313;32;20089;-86
2023/06/06 10:59:31;;;;;;;14.48;10.90;;;;;;;25.34;60.55;99688.31;4423709;32;20500;-86
2023/06/06 11:01:57;;;;;;;16.45;11.98;;;;;;;25.38;60.54;99692.38;4408323;32;20098;-86
2023/06/06 11:04:24;;;;;;;16.17;11.70;;;;;;;25.32;60.55;99685.81;4382421;32;20106;-86
2023/06/06 11:06:51;;;;;;;15.77;12.52;;;;;;;25.35;60.55;99682.84;4379116;32;20091;-86
2023/06/06 11:09:28;;;;;;;15.00;12.70;;;;;;;25.15;60.54;99696.34;4394297;32;20124;-89
2023/06/06 11:12:12;;;;;;;14.93;12.43;;;;;;;25.28;60.54;99697.72;4407028;32;20135;-86
2023/06/06 11:15:03;;;;;;;15.23;13.15;;;;;;;25.14;60.53;99694.66;4407639;32;20118;-85
2023/06/06 11:17:43;;;;;;;22.35;16.40;;;;;;;25.14;60.54;99684.84;4402296;32;20082;-84
2023/06/06 11:20:18;;;;;;;20.83;17.12;;;;;;;25.28;60.54;99696.87;4402442;32;20109;-86
2023/06/06 11:23:01;;;;;;;17.77;13.38;;;;;;;25.45;60.55;99688.13;4404149;32;20113;-85
2023/06/06 11:25:27;;;;;;;15.05;11.63;;;;;;;25.57;60.55;99692.31;4407952;32;20085;-86
2023/06/06 11:27:52;;;;;;;6.78;5.40;;;;;;;25.62;60.56;99703.37;4406620;32;20157;-86